Detalii statie BEREGSANA BEREGSAU [00001991]

Toti senzorii

Date Temperatura solului [C]Precipitatii [mm]Voltaj baterie [mV]Leaf Wetness [Min]HC Air temperature [C]HC Relative humidity [%]Punctul de roua [C]
medieminmaxsumaultimatimpmedieminmaxmediemediemin
2017-12-10 22:00:00 2.4 2.3 2.5 0 6992
2017-12-10 23:00:00 2.3 2.3 2.4 0 7020
2017-12-11 00:00:00 2.4 2.3 2.6 0 7000
2017-12-11 01:00:00 2.3 2.3 2.5 0 7010
2017-12-11 02:00:00 2.3 2.3 2.4 0 6992
2017-12-11 03:00:00 2.3 2.3 2.5 0 6992
2017-12-11 04:00:00 2.3 2.2 2.6 0 6992
2017-12-11 05:00:00 2.4 2.3 2.6 1.2 6992
2017-12-11 06:00:00 2.4 2.3 2.6 1.4 6982
2017-12-11 07:00:00 2.4 2.4 2.5 0.8 6962
2017-12-11 08:00:00 2.4 2.4 2.6 0.6 6992
2017-12-11 09:00:00 2.4 2.4 2.6 0.6 6952
2017-12-11 10:00:00 2.4 2.4 2.6 0.2 6982
2017-12-11 11:00:00 2.5 2.4 2.7 0 7050
2017-12-11 12:00:00 2.6 2.6 2.8 0 7158
2017-12-11 13:00:00 2.7 2.6 2.9 0 7304
2017-12-11 14:00:00 2.9 2.8 3.1 0 7304
2017-12-11 15:00:00 3.1 3 3.5 0 7304
2017-12-11 16:00:00 3.3 3.3 3.5 0 7254
2017-12-11 17:00:00 3.4 3.2 3.6 0 7128
2017-12-11 18:00:00 3.6 3.5 3.7 0 7050
2017-12-11 19:00:00 3.7 3.6 3.9 0 6992
2017-12-11 20:00:00 3.8 3.7 4 0 6972
2017-12-11 21:00:00 3.9 3.8 4.1 0 6992
2017-12-11 22:00:00 4 4 4.1 0 6952
2017-12-11 23:00:00 4 4 4.2 0 6972
2017-12-12 00:00:00 4.1 3.9 4.2 0 6962
2017-12-12 01:00:00 4.1 4 4.3 0 6962
2017-12-12 02:00:00 4.2 4 4.4 0 6952
2017-12-12 03:00:00 4.2 4.2 4.4 0 6952
2017-12-12 04:00:00 4.2 4.2 4.4 0 6952
2017-12-12 05:00:00 4.2 4.1 4.4 0 6952
2017-12-12 06:00:00 4.3 4.1 4.4 0 6962
2017-12-12 07:00:00 4.3 4.2 4.5 0 6932
2017-12-12 08:00:00 4.5 4.4 4.6 0 6962
2017-12-12 09:00:00 4.5 4.4 4.6 0 6942
2017-12-12 10:00:00 4.6 4.5 4.8 0 7060
2017-12-12 11:00:00 4.7 4.7 4.9 0 7118
2017-12-12 12:00:00 4.9 4.8 5 0 7226
2017-12-12 13:00:00 5 5 5.2 0 7304
2017-12-12 14:00:00 5.2 5.1 5.4 0 7304
2017-12-12 15:00:00 5.4 5.2 5.6 0 7304
2017-12-12 16:00:00 5.6 5.5 5.8 0 7304
2017-12-12 17:00:00 5.7 5.7 5.8 0 7186
2017-12-12 18:00:00 5.9 5.8 6 0 7088
2017-12-12 19:00:00 6 5.9 6.1 0 7000
2017-12-12 20:00:00 6 6 6.1 0 6962
2017-12-12 21:00:00 6.1 6 6.2 0 6982